Time;durP1;ratioP1;P1;durP2;ratioP2;P2;SDS_P1;SDS_P2;PMS_P1;PMS_P2;Temp;Humidity;BMP_temperature;BMP_pressure;BME280_temperature;BME280_humidity;BME280_pressure;Samples;Min_cycle;Max_cycle;Signal;HPM_P1;HPM_P2
2023/11/29 00:01:57;;;;;;;14.53;10.00;;;1.90;99.90;;;;;;5033564;28;20267;-63
2023/11/29 00:04:25;;;;;;;14.77;8.73;;;1.90;99.90;;;;;;5039521;28;20197;-65
2023/11/29 00:06:53;;;;;;;17.43;8.97;;;1.90;99.90;;;;;;5036922;28;20232;-63
2023/11/29 00:09:22;;;;;;;16.53;9.20;;;1.90;99.90;;;;;;5042079;28;20224;-62
2023/11/29 00:11:50;;;;;;;11.30;8.27;;;1.90;99.90;;;;;;5041928;28;20213;-63
2023/11/29 00:14:18;;;;;;;16.17;8.53;;;1.90;99.90;;;;;;5043526;28;20227;-63
2023/11/29 00:16:46;;;;;;;15.50;9.13;;;1.90;99.90;;;;;;5041696;28;20212;-61
2023/11/29 00:19:19;;;;;;;14.73;8.77;;;1.90;99.90;;;;;;5043924;28;20197;-63
2023/11/29 00:21:47;;;;;;;14.33;8.40;;;1.90;99.90;;;;;;5038643;28;20222;-63
2023/11/29 00:24:15;;;;;;;12.47;8.77;;;2.00;99.90;;;;;;5042361;28;20579;-63
2023/11/29 00:26:44;;;;;;;14.20;8.50;;;2.00;99.90;;;;;;5038720;28;20750;-63
2023/11/29 00:29:12;;;;;;;15.57;8.77;;;2.10;99.90;;;;;;5042366;28;20612;-63
2023/11/29 00:31:40;;;;;;;13.40;7.83;;;2.10;99.90;;;;;;5038817;28;20192;-64
2023/11/29 00:34:08;;;;;;;8.63;7.70;;;2.20;99.90;;;;;;5040189;28;20315;-64
2023/11/29 00:36:39;;;;;;;11.23;7.07;;;2.20;99.90;;;;;;5039720;28;20231;-64
2023/11/29 00:39:07;;;;;;;15.73;8.17;;;2.20;99.90;;;;;;5037025;28;20220;-63
2023/11/29 00:41:41;;;;;;;11.57;7.40;;;2.20;99.90;;;;;;5037896;28;20709;-63
2023/11/29 00:44:09;;;;;;;10.33;7.53;;;2.20;99.90;;;;;;5041836;28;20240;-63
2023/11/29 00:46:38;;;;;;;13.43;7.50;;;2.20;99.90;;;;;;5038344;28;20825;-64
2023/11/29 00:49:08;;;;;;;13.00;7.23;;;2.10;99.90;;;;;;5040537;28;20232;-63
2023/11/29 00:51:36;;;;;;;12.97;7.30;;;2.10;99.90;;;;;;5043924;28;20213;-64
2023/11/29 00:54:06;;;;;;;14.40;7.60;;;2.10;99.90;;;;;;5038200;28;20251;-63
2023/11/29 00:56:34;;;;;;;14.90;8.13;;;2.10;99.90;;;;;;5040674;28;20251;-63
2023/11/29 00:59:05;;;;;;;13.30;7.00;;;2.10;99.90;;;;;;5041096;28;20331;-61
2023/11/29 01:01:34;;;;;;;11.23;6.90;;;2.10;99.90;;;;;;5042853;28;20563;-62
2023/11/29 01:04:05;;;;;;;11.47;7.23;;;2.20;99.90;;;;;;5039453;28;20786;-63
2023/11/29 01:06:33;;;;;;;11.50;7.10;;;2.20;99.90;;;;;;5039553;28;20221;-63
2023/11/29 01:09:04;;;;;;;11.00;7.33;;;2.20;99.90;;;;;;5039035;28;20228;-63
2023/11/29 01:11:34;;;;;;;12.83;6.90;;;2.20;99.90;;;;;;5039301;28;20224;-62
2023/11/29 01:14:04;;;;;;;9.37;6.43;;;2.20;99.90;;;;;;5039734;28;20230;-63
2023/11/29 01:16:33;;;;;;;11.90;6.30;;;2.20;99.90;;;;;;5040690;28;20201;-63
2023/11/29 01:19:01;;;;;;;12.40;6.50;;;2.30;99.90;;;;;;5038583;28;20240;-63
2023/11/29 01:21:30;;;;;;;8.07;6.23;;;2.40;99.90;;;;;;5039617;28;20225;-63
2023/11/29 01:24:04;;;;;;;11.10;6.23;;;2.50;99.90;;;;;;5039217;28;20247;-63
2023/11/29 01:26:39;;;;;;;11.13;6.10;;;2.50;99.90;;;;;;5041265;28;20231;-62
2023/11/29 01:29:08;;;;;;;11.17;6.13;;;2.60;99.90;;;;;;5044155;28;20228;-62
2023/11/29 01:31:41;;;;;;;6.70;5.83;;;2.60;99.90;;;;;;5043857;28;20652;-63
2023/11/29 01:34:09;;;;;;;11.97;7.07;;;2.60;99.90;;;;;;5043185;28;21016;-63
2023/11/29 01:36:42;;;;;;;11.43;6.93;;;2.50;99.90;;;;;;5040605;28;20256;-63
2023/11/29 01:39:14;;;;;;;12.30;6.37;;;2.50;99.90;;;;;;5040299;28;20224;-63
2023/11/29 01:41:44;;;;;;;10.10;6.30;;;2.50;99.90;;;;;;5043012;28;20228;-62
2023/11/29 01:44:12;;;;;;;10.13;6.37;;;2.50;99.90;;;;;;5038533;28;20253;-62
2023/11/29 01:46:41;;;;;;;10.03;6.47;;;2.60;99.90;;;;;;5044551;28;20204;-63
2023/11/29 01:49:09;;;;;;;8.43;5.40;;;2.60;99.90;;;;;;5042977;28;20228;-63
2023/11/29 01:51:40;;;;;;;10.43;5.90;;;2.70;99.90;;;;;;5055503;28;20235;-63
2023/11/29 01:54:09;;;;;;;7.37;5.90;;;2.70;99.90;;;;;;5043072;28;20221;-62
2023/11/29 01:56:40;;;;;;;10.07;6.20;;;2.70;99.90;;;;;;5043109;28;20216;-63
2023/11/29 01:59:10;;;;;;;8.37;5.93;;;2.70;99.90;;;;;;5042128;28;20715;-63
2023/11/29 02:01:38;;;;;;;8.83;5.60;;;2.80;99.90;;;;;;5040034;28;20232;-64
2023/11/29 02:04:07;;;;;;;10.73;5.83;;;2.80;99.90;;;;;;5040105;28;20216;-64
2023/11/29 02:06:53;;;;;;;8.80;6.23;;;2.80;99.90;;;;;;5046329;28;20212;-63
2023/11/29 02:09:23;;;;;;;10.17;5.97;;;2.80;99.90;;;;;;5039028;28;20217;-63
2023/11/29 02:11:53;;;;;;;15.10;6.03;;;2.80;99.90;;;;;;5039793;28;20216;-64
2023/11/29 02:14:23;;;;;;;11.70;6.23;;;2.80;99.90;;;;;;5043599;28;20229;-63
2023/11/29 02:16:51;;;;;;;9.33;6.03;;;2.80;99.90;;;;;;5041065;28;20232;-64
2023/11/29 02:19:19;;;;;;;10.37;6.20;;;2.80;99.90;;;;;;5044352;28;20291;-62
2023/11/29 02:21:47;;;;;;;12.53;5.63;;;2.80;99.90;;;;;;5039636;28;20219;-63
2023/11/29 02:24:20;;;;;;;9.77;5.93;;;2.80;99.90;;;;;;5042840;28;20270;-63
2023/11/29 02:26:49;;;;;;;11.00;5.97;;;2.80;99.90;;;;;;5043654;28;20220;-63
2023/11/29 02:29:18;;;;;;;7.10;5.80;;;2.80;99.90;;;;;;5041788;28;20224;-63
2023/11/29 02:31:46;;;;;;;6.73;6.00;;;2.80;99.90;;;;;;5042958;28;20204;-61
2023/11/29 02:34:14;;;;;;;11.67;6.03;;;2.80;99.90;;;;;;5043707;28;20197;-63
2023/11/29 02:36:42;;;;;;;10.50;6.30;;;2.80;99.90;;;;;;5043651;28;20562;-63
2023/11/29 02:39:11;;;;;;;8.23;5.83;;;2.70;99.90;;;;;;5043515;28;20239;-63
2023/11/29 02:41:39;;;;;;;9.13;6.27;;;2.80;99.90;;;;;;5041995;28;20882;-62
2023/11/29 02:44:09;;;;;;;7.60;5.87;;;2.80;99.90;;;;;;5044268;28;20229;-62
2023/11/29 02:46:40;;;;;;;9.90;6.07;;;2.90;99.90;;;;;;5044126;28;20190;-63
2023/11/29 02:49:11;;;;;;;14.03;6.00;;;2.90;99.90;;;;;;5040616;28;20311;-63
2023/11/29 02:51:40;;;;;;;6.87;6.10;;;3.10;99.90;;;;;;5040756;28;20236;-63
2023/11/29 02:54:08;;;;;;;11.63;6.20;;;3.00;99.90;;;;;;5040801;28;20227;-64
2023/11/29 02:56:36;;;;;;;9.70;6.80;;;3.00;99.90;;;;;;5039147;28;20227;-63
2023/11/29 02:59:04;;;;;;;10.70;6.77;;;3.00;99.90;;;;;;5045144;28;20311;-63
2023/11/29 03:01:35;;;;;;;11.00;6.60;;;3.00;99.90;;;;;;5041738;28;20193;-63
2023/11/29 03:04:03;;;;;;;8.93;6.83;;;3.00;99.90;;;;;;5037745;28;20229;-63
2023/11/29 03:06:32;;;;;;;12.07;6.40;;;3.00;99.90;;;;;;5044082;28;20216;-63
2023/11/29 03:09:00;;;;;;;11.77;6.37;;;3.00;99.90;;;;;;5039576;28;20217;-63
2023/11/29 03:11:28;;;;;;;11.83;7.40;;;3.00;99.90;;;;;;5038520;28;20232;-62
2023/11/29 03:13:56;;;;;;;11.73;6.80;;;3.00;99.90;;;;;;5040641;28;20186;-63
2023/11/29 03:16:24;;;;;;;11.47;7.03;;;3.00;99.90;;;;;;5042843;28;20635;-63
2023/11/29 03:18:54;;;;;;;12.07;7.30;;;2.90;99.90;;;;;;5043020;28;20216;-63
2023/11/29 03:21:22;;;;;;;13.63;6.20;;;2.90;99.90;;;;;;5058343;28;20212;-63
2023/11/29 03:23:50;;;;;;;11.37;7.07;;;2.90;99.90;;;;;;5039483;28;20229;-63
2023/11/29 03:26:19;;;;;;;12.90;6.80;;;2.90;99.90;;;;;;5041244;28;20279;-63
2023/11/29 03:28:47;;;;;;;7.80;6.30;;;2.90;99.90;;;;;;5039084;28;20185;-62
2023/11/29 03:31:15;;;;;;;11.10;6.77;;;2.80;99.90;;;;;;5042711;28;20197;-63
2023/11/29 03:33:43;;;;;;;11.13;6.33;;;2.90;99.90;;;;;;5036572;28;20232;-65
2023/11/29 03:36:13;;;;;;;9.40;6.47;;;2.90;99.90;;;;;;5042673;28;20221;-62
2023/11/29 03:38:41;;;;;;;10.27;6.63;;;2.90;99.90;;;;;;5038446;28;20228;-62
2023/11/29 03:41:09;;;;;;;13.17;6.97;;;2.90;99.90;;;;;;5042664;28;20315;-63
2023/11/29 03:43:43;;;;;;;9.70;7.17;;;3.00;99.90;;;;;;5045062;28;20209;-63
2023/11/29 03:46:14;;;;;;;12.70;6.87;;;3.00;99.90;;;;;;5046782;28;20217;-63
2023/11/29 03:48:43;;;;;;;16.07;7.07;;;3.00;99.90;;;;;;5046158;28;20274;-63
2023/11/29 03:51:13;;;;;;;8.13;6.17;;;2.90;99.90;;;;;;5045220;28;20545;-62
2023/11/29 03:53:41;;;;;;;9.83;6.53;;;2.90;99.90;;;;;;5047119;28;20228;-63
2023/11/29 03:56:10;;;;;;;11.53;6.33;;;2.90;99.90;;;;;;5045017;28;20228;-62
2023/11/29 03:58:40;;;;;;;9.83;7.07;;;2.90;99.90;;;;;;5045814;28;20193;-63
2023/11/29 04:01:08;;;;;;;10.90;7.30;;;2.90;99.90;;;;;;5043197;28;20256;-63
2023/11/29 04:03:36;;;;;;;10.27;7.10;;;2.90;99.90;;;;;;5042857;28;21011;-63
2023/11/29 04:06:05;;;;;;;12.07;6.80;;;2.90;99.90;;;;;;5043331;28;20232;-63
2023/11/29 04:08:36;;;;;;;11.57;6.87;;;2.90;99.90;;;;;;5043266;28;20227;-62
2023/11/29 04:11:11;;;;;;;9.70;6.67;;;2.90;99.90;;;;;;5041610;28;20220;-62
2023/11/29 04:13:45;;;;;;;10.47;6.77;;;2.90;99.90;;;;;;5047542;28;20273;-63
2023/11/29 04:16:26;;;;;;;14.37;7.10;;;2.80;99.90;;;;;;5023130;28;20220;-63
2023/11/29 04:18:55;;;;;;;11.63;7.07;;;2.80;99.90;;;;;;5028410;28;20221;-62
2023/11/29 04:21:25;;;;;;;13.43;7.53;;;2.70;99.90;;;;;;5025732;28;20695;-62
2023/11/29 04:23:57;;;;;;;12.43;7.73;;;2.70;99.90;;;;;;5022786;28;20240;-61
2023/11/29 04:26:29;;;;;;;9.43;7.00;;;2.70;99.90;;;;;;5022651;28;20229;-62
2023/11/29 04:28:57;;;;;;;9.90;6.90;;;2.60;99.90;;;;;;5025317;28;20190;-61
2023/11/29 04:31:26;;;;;;;10.07;7.13;;;2.50;99.90;;;;;;5016957;28;20690;-62
2023/11/29 04:33:54;;;;;;;10.80;6.80;;;2.50;99.90;;;;;;5023336;28;20232;-62
2023/11/29 04:36:23;;;;;;;8.93;6.87;;;2.40;99.90;;;;;;5022389;28;20232;-62
2023/11/29 04:38:53;;;;;;;10.90;7.20;;;2.40;99.90;;;;;;5019706;28;20224;-62
2023/11/29 04:41:22;;;;;;;8.83;6.83;;;2.30;99.90;;;;;;5020906;28;20224;-63
2023/11/29 04:43:51;;;;;;;9.60;6.73;;;2.20;99.90;;;;;;5023503;28;20201;-62
2023/11/29 04:46:20;;;;;;;9.53;6.60;;;2.20;99.90;;;;;;5025212;28;20300;-63
2023/11/29 04:48:48;;;;;;;12.00;7.03;;;2.20;99.90;;;;;;5027918;28;20688;-63
2023/11/29 04:51:16;;;;;;;8.30;6.77;;;2.20;99.90;;;;;;5018305;28;20225;-62
2023/11/29 04:53:46;;;;;;;9.57;7.00;;;2.30;99.90;;;;;;5022706;28;20549;-62
2023/11/29 04:56:15;;;;;;;9.43;7.50;;;2.20;99.90;;;;;;5015092;28;20568;-63
2023/11/29 04:58:46;;;;;;;12.03;8.27;;;2.20;99.90;;;;;;5031467;28;20289;-62
2023/11/29 05:01:14;;;;;;;8.23;7.37;;;2.20;99.90;;;;;;5020019;28;20771;-63
2023/11/29 05:03:43;;;;;;;11.80;8.13;;;2.20;99.90;;;;;;5022273;28;20762;-63
2023/11/29 05:06:11;;;;;;;10.87;8.27;;;2.30;99.90;;;;;;5025000;28;20240;-62
2023/11/29 05:08:43;;;;;;;11.37;8.13;;;2.30;99.90;;;;;;5022288;28;20221;-62
2023/11/29 05:11:14;;;;;;;10.13;7.93;;;2.30;99.90;;;;;;5022268;28;20225;-63
2023/11/29 05:13:43;;;;;;;13.33;8.87;;;2.30;99.90;;;;;;5017990;28;20269;-63
2023/11/29 05:16:12;;;;;;;10.97;8.10;;;2.30;99.90;;;;;;5020949;28;20221;-63
2023/11/29 05:18:42;;;;;;;10.07;7.77;;;2.30;99.90;;;;;;5021060;28;20222;-64
2023/11/29 05:21:11;;;;;;;13.00;8.23;;;2.30;99.90;;;;;;5024651;28;20230;-63
2023/11/29 05:23:39;;;;;;;11.50;8.30;;;2.20;99.90;;;;;;5019199;28;20238;-63
2023/11/29 05:26:09;;;;;;;10.83;8.07;;;2.20;99.90;;;;;;5019279;28;20231;-62
2023/11/29 05:28:41;;;;;;;12.87;8.60;;;2.10;99.90;;;;;;5022436;28;20660;-63
2023/11/29 05:31:13;;;;;;;16.13;8.77;;;2.00;99.90;;;;;;5022831;28;20600;-63
2023/11/29 05:33:41;;;;;;;12.23;8.60;;;2.00;99.90;;;;;;5023010;28;20227;-63
2023/11/29 05:36:10;;;;;;;9.97;8.17;;;1.90;99.90;;;;;;5022950;28;20244;-63
2023/11/29 05:38:39;;;;;;;12.43;8.83;;;1.90;99.90;;;;;;5023750;28;20224;-62
2023/11/29 05:41:07;;;;;;;12.57;8.53;;;1.80;99.90;;;;;;5025970;28;20742;-62
2023/11/29 05:43:35;;;;;;;11.43;8.17;;;1.90;99.90;;;;;;5019830;28;20194;-63
2023/11/29 05:46:03;;;;;;;11.80;7.70;;;2.00;99.90;;;;;;5022122;28;20736;-63
2023/11/29 05:48:33;;;;;;;10.87;7.83;;;2.00;99.90;;;;;;5020644;28;20316;-62
2023/11/29 05:51:02;;;;;;;13.90;8.60;;;1.90;99.90;;;;;;5018576;28;20229;-63
2023/11/29 05:53:30;;;;;;;13.37;8.47;;;1.90;99.90;;;;;;5021894;28;20221;-62
2023/11/29 05:55:58;;;;;;;14.27;7.73;;;1.80;99.90;;;;;;5020996;28;20340;-62
2023/11/29 05:58:27;;;;;;;13.60;8.40;;;1.90;99.90;;;;;;5022301;28;20222;-64
2023/11/29 06:00:56;;;;;;;13.50;8.30;;;1.90;99.90;;;;;;5018367;28;20217;-62
2023/11/29 06:03:25;;;;;;;13.37;8.47;;;2.00;99.90;;;;;;5021355;28;20761;-62
2023/11/29 06:05:59;;;;;;;16.23;7.97;;;2.00;99.90;;;;;;5023768;28;20217;-63
2023/11/29 06:08:28;;;;;;;13.10;8.27;;;2.00;99.90;;;;;;5019405;28;20228;-63
2023/11/29 06:10:57;;;;;;;13.57;8.07;;;2.10;99.90;;;;;;5020400;28;20193;-62
2023/11/29 06:13:25;;;;;;;10.93;8.43;;;2.10;99.90;;;;;;5021638;28;20200;-63
2023/11/29 06:15:54;;;;;;;15.17;8.70;;;2.10;99.90;;;;;;5022373;28;20245;-63
2023/11/29 06:18:25;;;;;;;15.23;8.20;;;2.10;99.90;;;;;;5019866;28;20237;-63
2023/11/29 06:20:57;;;;;;;11.97;7.83;;;2.10;99.90;;;;;;5021849;28;20217;-63
2023/11/29 06:23:27;;;;;;;13.20;8.57;;;2.10;99.90;;;;;;5023757;28;20899;-62
2023/11/29 06:25:55;;;;;;;11.60;7.90;;;2.10;99.90;;;;;;5022231;28;20209;-62
2023/11/29 06:28:23;;;;;;;14.80;7.93;;;2.10;99.90;;;;;;5021183;28;20754;-62
2023/11/29 06:30:54;;;;;;;10.40;7.80;;;2.10;99.90;;;;;;5023205;28;20308;-62
2023/11/29 06:33:25;;;;;;;12.20;8.27;;;2.00;99.90;;;;;;5025258;28;20622;-51
2023/11/29 06:35:58;;;;;;;14.80;7.93;;;2.00;99.90;;;;;;5024089;28;20221;-52
2023/11/29 06:38:32;;;;;;;14.63;8.57;;;2.10;99.90;;;;;;5031884;28;20229;-53
2023/11/29 06:41:00;;;;;;;17.63;8.30;;;2.10;99.90;;;;;;5041572;28;20224;-51
2023/11/29 06:43:29;;;;;;;13.17;8.00;;;2.10;99.90;;;;;;5028858;28;20308;-56
2023/11/29 06:45:58;;;;;;;16.47;8.07;;;2.00;99.90;;;;;;5024772;28;20217;-56
2023/11/29 06:48:27;;;;;;;18.27;8.60;;;2.10;99.90;;;;;;5030012;28;20241;-52
2023/11/29 06:51:02;;;;;;;16.70;8.43;;;2.10;99.90;;;;;;5040405;28;20213;-52
2023/11/29 06:53:33;;;;;;;15.00;8.30;;;2.10;99.90;;;;;;5044683;28;20291;-52
2023/11/29 06:56:06;;;;;;;14.83;8.73;;;2.10;99.90;;;;;;5045295;28;20283;-50
2023/11/29 06:58:36;;;;;;;18.80;8.30;;;2.10;99.90;;;;;;5052366;28;20196;-52
2023/11/29 07:01:06;;;;;;;14.07;7.83;;;2.10;99.90;;;;;;5050288;28;20248;-52
2023/11/29 07:03:37;;;;;;;15.20;8.07;;;2.10;99.90;;;;;;5045159;28;20225;-49
2023/11/29 07:06:06;;;;;;;12.10;8.10;;;2.20;99.90;;;;;;5049117;28;20659;-49
2023/11/29 07:08:40;;;;;;;20.53;8.03;;;2.10;99.90;;;;;;5044536;28;20248;-52
2023/11/29 07:11:09;;;;;;;18.37;8.30;;;2.20;99.90;;;;;;5052206;28;20583;-52
2023/11/29 07:13:37;;;;;;;14.10;7.90;;;2.20;99.90;;;;;;5052170;28;20233;-51
2023/11/29 07:16:24;;;;;;;14.47;8.13;;;2.20;99.90;;;;;;5044462;28;20217;-53
2023/11/29 07:18:52;;;;;;;17.40;8.13;;;2.30;99.90;;;;;;5051556;28;20258;-53
2023/11/29 07:21:21;;;;;;;14.70;8.43;;;2.30;99.90;;;;;;5052357;28;20563;-52
2023/11/29 07:23:50;;;;;;;15.60;8.13;;;2.30;99.90;;;;;;5055480;28;20216;-54
2023/11/29 07:26:20;;;;;;;13.87;7.77;;;2.30;99.90;;;;;;5055552;28;20216;-53
2023/11/29 07:28:48;;;;;;;23.17;8.20;;;2.30;99.90;;;;;;5054890;28;20279;-54
2023/11/29 07:31:18;;;;;;;12.53;7.33;;;2.30;99.90;;;;;;5055407;28;20189;-55
2023/11/29 07:33:46;;;;;;;13.17;7.90;;;2.30;99.90;;;;;;5051617;28;20292;-54
2023/11/29 07:36:14;;;;;;;16.00;8.17;;;2.30;99.90;;;;;;5050484;28;20216;-54
2023/11/29 07:38:45;;;;;;;14.40;7.50;;;2.30;99.90;;;;;;5050859;28;20233;-51
2023/11/29 07:41:15;;;;;;;21.60;8.20;;;2.30;99.90;;;;;;5053744;28;20264;-51
2023/11/29 07:43:43;;;;;;;19.80;8.27;;;2.30;99.90;;;;;;5052684;28;20204;-53
2023/11/29 07:46:12;;;;;;;15.53;8.10;;;2.30;99.90;;;;;;5041181;28;20726;-53
2023/11/29 07:48:41;;;;;;;14.53;7.73;;;2.30;99.90;;;;;;5048220;28;20738;-49
2023/11/29 07:51:09;;;;;;;17.70;8.43;;;2.30;99.90;;;;;;5046127;28;20892;-51
2023/11/29 07:53:37;;;;;;;17.63;8.30;;;2.40;99.90;;;;;;5046084;28;20217;-50
2023/11/29 07:56:07;;;;;;;18.83;8.47;;;2.40;99.90;;;;;;5050989;28;20227;-49
2023/11/29 07:58:37;;;;;;;13.80;7.43;;;2.50;99.90;;;;;;5043128;28;20197;-50
2023/11/29 08:01:05;;;;;;;10.13;6.97;;;2.50;99.90;;;;;;5052304;28;20294;-53
2023/11/29 08:03:34;;;;;;;20.33;7.13;;;2.50;99.90;;;;;;5051652;28;20250;-52
2023/11/29 08:06:03;;;;;;;15.13;7.13;;;2.60;99.90;;;;;;5051235;28;20249;-52
2023/11/29 08:08:32;;;;;;;11.47;7.27;;;2.60;99.90;;;;;;5051344;28;20694;-50
2023/11/29 08:11:00;;;;;;;14.83;8.00;;;2.60;99.90;;;;;;5050215;28;20700;-53
2023/11/29 08:13:29;;;;;;;12.77;6.77;;;2.70;99.90;;;;;;5050562;28;20275;-51
2023/11/29 08:15:58;;;;;;;17.47;7.10;;;2.70;99.90;;;;;;5054746;28;20224;-51
2023/11/29 08:18:27;;;;;;;16.90;7.00;;;2.80;99.90;;;;;;5051925;28;20223;-51
2023/11/29 08:20:55;;;;;;;13.33;6.37;;;2.80;99.90;;;;;;5051808;28;20293;-50
2023/11/29 08:23:23;;;;;;;8.80;6.30;;;2.90;99.90;;;;;;5043164;28;20217;-48
2023/11/29 08:25:51;;;;;;;12.77;6.83;;;2.90;99.90;;;;;;5047199;28;20244;-49
2023/11/29 08:28:20;;;;;;;8.33;6.27;;;2.90;99.90;;;;;;5041229;28;20220;-52
2023/11/29 08:30:49;;;;;;;15.57;6.17;;;2.90;99.90;;;;;;5052224;28;20219;-51
2023/11/29 08:33:18;;;;;;;14.37;6.10;;;2.90;99.90;;;;;;5049507;28;20228;-54
2023/11/29 08:35:47;;;;;;;10.20;5.97;;;2.90;99.90;;;;;;5044813;28;20216;-57
2023/11/29 08:38:16;;;;;;;10.53;6.03;;;3.00;99.90;;;;;;5037191;28;20327;-52
2023/11/29 08:40:44;;;;;;;11.27;6.13;;;3.00;99.90;;;;;;5048306;28;20313;-52
2023/11/29 08:43:13;;;;;;;13.53;6.23;;;3.00;99.90;;;;;;5040762;28;20216;-53
2023/11/29 08:45:51;;;;;;;11.60;6.40;;;3.10;99.90;;;;;;5044478;28;20244;-51
2023/11/29 08:48:20;;;;;;;9.80;6.10;;;3.00;99.90;;;;;;5051942;28;20217;-52
2023/11/29 08:50:53;;;;;;;12.83;6.33;;;3.00;99.90;;;;;;5048497;28;20587;-52
2023/11/29 08:53:22;;;;;;;14.53;6.10;;;3.00;99.90;;;;;;5054417;28;20630;-52
2023/11/29 08:56:15;;;;;;;11.33;6.30;;;3.10;99.90;;;;;;5041878;28;20547;-53
2023/11/29 08:58:44;;;;;;;10.17;6.13;;;3.20;99.90;;;;;;5046917;28;20192;-51
2023/11/29 09:01:13;;;;;;;10.40;6.47;;;3.20;99.90;;;;;;5042852;28;20815;-54
2023/11/29 09:03:43;;;;;;;10.80;6.67;;;3.30;99.90;;;;;;5047823;28;20687;-51
2023/11/29 09:06:11;;;;;;;11.90;6.27;;;3.30;99.90;;;;;;5040185;28;20221;-51
2023/11/29 09:08:42;;;;;;;11.20;5.93;;;3.40;99.90;;;;;;5049299;28;20224;-51
2023/11/29 09:11:10;;;;;;;8.70;6.33;;;3.50;99.90;;;;;;5049153;28;20757;-52
2023/11/29 09:13:39;;;;;;;9.10;6.00;;;3.60;99.90;;;;;;5050041;28;20207;-51
2023/11/29 09:16:08;;;;;;;8.93;5.87;;;3.80;99.90;;;;;;5050213;28;20221;-51
2023/11/29 09:18:37;;;;;;;14.77;6.40;;;3.90;99.90;;;;;;5047719;28;20209;-50
2023/11/29 09:21:07;;;;;;;11.57;5.57;;;4.00;99.90;;;;;;5041853;28;20401;-51
2023/11/29 09:23:35;;;;;;;13.00;6.27;;;4.10;99.90;;;;;;5041949;28;20646;-52
2023/11/29 09:26:05;;;;;;;10.70;5.60;;;4.30;99.90;;;;;;5044411;28;20212;-51
2023/11/29 09:28:33;;;;;;;13.33;6.03;;;4.40;99.90;;;;;;5039349;28;20316;-53
2023/11/29 09:31:03;;;;;;;9.60;5.83;;;4.50;99.90;;;;;;5049379;28;21093;-54
2023/11/29 09:33:32;;;;;;;10.23;5.47;;;4.60;99.90;;;;;;5048974;28;20620;-52
2023/11/29 09:36:01;;;;;;;7.77;5.33;;;4.70;99.90;;;;;;5042552;28;20228;-53
2023/11/29 09:38:33;;;;;;;10.03;5.77;;;4.80;99.90;;;;;;5046247;28;20213;-53
2023/11/29 09:41:01;;;;;;;7.90;5.77;;;4.90;99.90;;;;;;5048218;28;20221;-54
2023/11/29 09:43:30;;;;;;;11.77;6.23;;;5.10;99.90;;;;;;5044192;28;20205;-52
2023/11/29 09:45:58;;;;;;;10.23;6.20;;;5.20;99.90;;;;;;5038481;28;20236;-53
2023/11/29 09:48:26;;;;;;;12.17;5.67;;;5.30;99.90;;;;;;5048565;28;20229;-54
2023/11/29 09:50:56;;;;;;;10.93;5.20;;;5.50;99.90;;;;;;5035465;28;20278;-54
2023/11/29 09:53:26;;;;;;;8.83;6.13;;;5.60;99.90;;;;;;5043485;28;20277;-55
2023/11/29 09:55:58;;;;;;;10.50;5.27;;;5.80;99.90;;;;;;5042481;28;20196;-55
2023/11/29 09:58:27;;;;;;;11.43;5.97;;;5.80;99.90;;;;;;5048846;28;20191;-55
2023/11/29 10:00:57;;;;;;;10.33;5.77;;;6.10;99.90;;;;;;5044334;28;20727;-54
2023/11/29 10:03:26;;;;;;;7.67;5.33;;;6.40;99.90;;;;;;5041576;28;20591;-54
2023/11/29 10:05:55;;;;;;;9.13;5.13;;;6.60;99.90;;;;;;5047192;28;20232;-54
2023/11/29 10:08:23;;;;;;;9.67;5.33;;;6.70;99.90;;;;;;5047059;28;20323;-54
2023/11/29 10:10:52;;;;;;;8.33;5.30;;;6.80;99.90;;;;;;5046976;28;20624;-53
2023/11/29 10:13:22;;;;;;;7.47;5.40;;;6.80;99.90;;;;;;5046940;28;20228;-54
2023/11/29 10:15:51;;;;;;;6.50;4.80;;;7.00;99.90;;;;;;5040396;28;20224;-55
2023/11/29 10:18:20;;;;;;;9.10;5.77;;;7.20;99.90;;;;;;5048228;28;20667;-54
2023/11/29 10:20:50;;;;;;;8.03;5.50;;;7.40;99.90;;;;;;5044981;28;20699;-55
2023/11/29 10:23:34;;;;;;;8.60;5.43;;;7.40;99.90;;;;;;5046757;28;20230;-54
2023/11/29 10:26:02;;;;;;;13.07;6.67;;;7.30;97.20;;;;;;5044266;28;20298;-52
2023/11/29 10:28:32;;;;;;;8.97;5.73;;;7.20;99.90;;;;;;5044957;28;20213;-50
2023/11/29 10:31:01;;;;;;;8.83;5.13;;;7.20;94.10;;;;;;5048060;28;20228;-51
2023/11/29 10:33:31;;;;;;;7.33;5.20;;;7.20;97.80;;;;;;5049568;28;20232;-52
2023/11/29 10:36:01;;;;;;;10.20;5.80;;;7.30;99.90;;;;;;5042839;28;20210;-54
2023/11/29 10:38:37;;;;;;;8.73;5.37;;;7.50;99.80;;;;;;5045762;28;20220;-49
2023/11/29 10:41:06;;;;;;;11.07;5.07;;;7.40;91.60;;;;;;5045415;28;20226;-54
2023/11/29 10:43:38;;;;;;;8.27;4.90;;;7.30;95.80;;;;;;5048910;28;20189;-52
2023/11/29 10:46:13;;;;;;;6.77;5.00;;;7.20;96.50;;;;;;5045077;28;20240;-52
2023/11/29 10:48:49;;;;;;;8.17;4.90;;;7.10;96.30;;;;;;5042819;28;20231;-50
2023/11/29 10:51:19;;;;;;;9.10;5.13;;;7.00;99.70;;;;;;5040987;28;20235;-55
2023/11/29 10:53:50;;;;;;;7.67;5.00;;;6.90;99.50;;;;;;5051134;28;20304;-54
2023/11/29 10:56:20;;;;;;;9.43;5.30;;;6.70;97.40;;;;;;5038973;28;20239;-54
2023/11/29 10:59:00;;;;;;;12.80;6.00;;;6.50;99.90;;;;;;5043210;28;20271;-51
2023/11/29 11:01:32;;;;;;;8.80;4.97;;;6.50;99.90;;;;;;5051309;28;20778;-53
2023/11/29 11:04:01;;;;;;;8.10;4.70;;;6.40;99.90;;;;;;5048790;28;20841;-51
2023/11/29 11:06:39;;;;;;;10.50;4.50;;;6.50;99.90;;;;;;5042804;28;20568;-53
2023/11/29 11:09:32;;;;;;;8.30;4.57;;;6.50;99.90;;;;;;5045179;28;20224;-51
2023/11/29 11:12:00;;;;;;;9.53;4.17;;;6.50;99.90;;;;;;5047338;28;20212;-56
2023/11/29 11:14:40;;;;;;;6.40;4.20;;;6.60;99.90;;;;;;5047596;28;20244;-52
2023/11/29 11:17:10;;;;;;;6.27;3.37;;;6.60;99.90;;;;;;5048465;28;20220;-52
2023/11/29 11:19:40;;;;;;;5.43;3.30;;;6.50;99.90;;;;;;5047494;28;20200;-53
2023/11/29 11:22:10;;;;;;;7.63;2.93;;;6.40;99.90;;;;;;5042699;28;20589;-54
2023/11/29 11:24:57;;;;;;;4.67;3.27;;;6.00;99.90;;;;;;5043385;28;20229;-51
2023/11/29 11:27:30;;;;;;;3.30;3.20;;;5.60;99.90;;;;;;5048070;28;20315;-54
2023/11/29 11:30:04;;;;;;;3.77;3.13;;;5.50;99.90;;;;;;5047229;28;20299;-55
2023/11/29 11:32:48;;;;;;;6.97;3.27;;;5.40;99.90;;;;;;5045102;28;20277;-54
2023/11/29 11:35:32;;;;;;;3.60;2.80;;;5.30;99.90;;;;;;5048438;28;20327;-55
2023/11/29 11:38:02;;;;;;;3.00;2.80;;;5.30;99.90;;;;;;5035169;28;20212;-52
2023/11/29 11:40:32;;;;;;;3.27;2.97;;;5.30;99.90;;;;;;5043957;28;20244;-56
2023/11/29 11:43:01;;;;;;;6.57;3.30;;;5.50;99.90;;;;;;5040529;28;20221;-53
2023/11/29 11:45:32;;;;;;;6.40;3.63;;;5.70;99.90;;;;;;5046566;28;20694;-50
2023/11/29 11:48:02;;;;;;;6.20;3.23;;;5.80;99.90;;;;;;5040565;28;20225;-54
2023/11/29 11:50:32;;;;;;;6.47;3.20;;;5.90;99.90;;;;;;5043100;28;20212;-53
2023/11/29 11:53:03;;;;;;;5.67;3.37;;;6.00;99.90;;;;;;5040346;28;20193;-53
2023/11/29 11:55:31;;;;;;;4.80;3.30;;;6.00;99.90;;;;;;5043396;28;20844;-51
2023/11/29 11:58:09;;;;;;;7.03;4.00;;;6.10;99.90;;;;;;5002896;28;20276;-54
2023/11/29 12:00:40;;;;;;;4.57;3.27;;;6.10;99.90;;;;;;5007135;28;20388;-54
2023/11/29 12:03:09;;;;;;;7.53;3.50;;;6.10;99.90;;;;;;4997700;28;20588;-54
2023/11/29 12:05:39;;;;;;;6.33;3.20;;;6.10;99.90;;;;;;5001407;28;20226;-54
2023/11/29 12:08:09;;;;;;;4.87;3.20;;;6.00;99.90;;;;;;5025858;28;20233;-56
2023/11/29 12:10:38;;;;;;;3.80;3.40;;;5.90;99.90;;;;;;5033460;28;20654;-54
2023/11/29 12:13:07;;;;;;;8.57;3.63;;;5.90;99.90;;;;;;5028432;28;20253;-55
2023/11/29 12:15:35;;;;;;;9.93;4.77;;;5.80;99.90;;;;;;5028956;28;20245;-55
2023/11/29 12:18:14;;;;;;;6.50;4.40;;;5.80;99.90;;;;;;5031068;28;20221;-53
2023/11/29 12:20:43;;;;;;;9.50;5.27;;;5.90;99.90;;;;;;5033513;28;20232;-50
2023/11/29 12:23:13;;;;;;;7.13;4.30;;;6.00;99.90;;;;;;5036161;28;20261;-54
2023/11/29 12:25:43;;;;;;;5.83;3.70;;;6.00;99.90;;;;;;5029258;28;20531;-56
2023/11/29 12:28:12;;;;;;;7.10;4.23;;;6.00;99.90;;;;;;5015512;28;20251;-55
2023/11/29 12:30:42;;;;;;;8.23;3.90;;;5.90;99.90;;;;;;5028790;28;20316;-56
2023/11/29 12:33:14;;;;;;;6.03;3.80;;;5.80;99.90;;;;;;5011540;28;20229;-55
2023/11/29 12:35:42;;;;;;;4.17;3.77;;;5.70;99.90;;;;;;5026098;28;20221;-55
2023/11/29 12:38:10;;;;;;;3.87;3.60;;;5.70;99.90;;;;;;5011757;28;20221;-56
2023/11/29 12:40:39;;;;;;;3.90;3.60;;;5.70;99.90;;;;;;5029571;28;20202;-53
2023/11/29 12:43:07;;;;;;;3.77;3.40;;;5.70;99.90;;;;;;5029346;28;20216;-56
2023/11/29 12:45:36;;;;;;;4.53;3.90;;;5.70;99.90;;;;;;5025143;28;20245;-55
2023/11/29 12:48:05;;;;;;;4.37;3.60;;;5.60;99.90;;;;;;5027220;28;20233;-55
2023/11/29 12:50:35;;;;;;;4.37;3.67;;;5.60;99.90;;;;;;5025850;28;20307;-54
2023/11/29 12:53:05;;;;;;;8.30;4.10;;;5.60;99.90;;;;;;5029161;28;20232;-56
2023/11/29 12:55:33;;;;;;;6.30;4.63;;;5.60;99.90;;;;;;5023805;28;20186;-55
2023/11/29 12:58:05;;;;;;;4.93;4.47;;;5.50;99.90;;;;;;5008917;28;20222;-56
2023/11/29 13:00:34;;;;;;;6.00;4.10;;;5.50;99.90;;;;;;5001817;28;20225;-54
2023/11/29 13:03:03;;;;;;;7.40;4.50;;;5.60;99.90;;;;;;5001090;28;20687;-53
2023/11/29 13:05:31;;;;;;;4.50;4.10;;;5.60;99.90;;;;;;5006650;28;20708;-53